createdAt,value
2022-08-01T00:00:09.864Z,19.22
2022-08-01T00:02:40.576Z,19.21
2022-08-01T00:05:11.167Z,19.21
2022-08-01T00:07:39.343Z,19.21
2022-08-01T00:10:12.339Z,19.21
2022-08-01T00:12:40.822Z,19.19
2022-08-01T00:15:11.749Z,19.18
2022-08-01T00:17:40.001Z,19.17
2022-08-01T00:20:12.101Z,19.15
2022-08-01T00:22:39.929Z,19.10
2022-08-01T00:25:08.508Z,19.04
2022-08-01T00:27:37.596Z,19.02
2022-08-01T00:30:13.701Z,18.99
2022-08-01T00:32:36.941Z,18.94
2022-08-01T00:35:05.106Z,18.90
2022-08-01T00:37:32.934Z,18.88
2022-08-01T00:40:00.442Z,18.88
2022-08-01T00:42:28.135Z,18.86
2022-08-01T00:44:55.843Z,18.87
2022-08-01T00:47:23.449Z,18.92
2022-08-01T00:49:51.113Z,18.89
2022-08-01T00:52:18.786Z,18.89
2022-08-01T00:54:46.981Z,18.90
2022-08-01T00:57:15.023Z,18.94
2022-08-01T00:59:43.617Z,18.94
2022-08-01T01:02:15.052Z,18.98
2022-08-01T01:04:41.127Z,18.99
2022-08-01T01:07:31.112Z,19.00
2022-08-01T01:10:12.939Z,19.02
2022-08-01T01:13:10.207Z,19.02
2022-08-01T01:16:03.787Z,19.02
2022-08-01T01:18:47.611Z,18.99
2022-08-01T01:21:22.532Z,18.95
2022-08-01T01:24:33.193Z,18.92
2022-08-01T01:27:09.071Z,18.87
2022-08-01T01:29:58.958Z,18.83
2022-08-01T01:32:30.788Z,18.78
2022-08-01T01:34:57.615Z,18.73
2022-08-01T01:37:27.853Z,18.69
2022-08-01T01:39:57.662Z,18.72
2022-08-01T01:42:27.497Z,18.71
2022-08-01T01:44:55.883Z,18.74
2022-08-01T01:47:25.738Z,18.75
2022-08-01T01:49:56.887Z,18.76
2022-08-01T01:52:25.788Z,18.75
2022-08-01T01:54:54.914Z,18.77
2022-08-01T01:57:23.661Z,18.80
2022-08-01T01:59:54.080Z,18.80
2022-08-01T02:02:25.046Z,18.80
2022-08-01T02:04:54.225Z,18.79
2022-08-01T02:07:25.835Z,18.77
2022-08-01T02:09:55.403Z,18.74
2022-08-01T02:12:24.857Z,18.72
2022-08-01T02:14:55.649Z,18.70
2022-08-01T02:17:25.594Z,18.68
2022-08-01T02:19:54.934Z,18.64
2022-08-01T02:22:33.445Z,18.60
2022-08-01T02:25:17.268Z,18.56
2022-08-01T02:27:57.384Z,18.52
2022-08-01T02:30:26.660Z,18.48
2022-08-01T02:33:02.510Z,18.46
2022-08-01T02:35:34.758Z,18.48
2022-08-01T02:38:11.636Z,18.50
2022-08-01T02:40:44.453Z,18.53
2022-08-01T02:43:16.716Z,18.55
2022-08-01T02:45:49.599Z,18.57
2022-08-01T02:48:19.979Z,18.59
2022-08-01T02:50:50.686Z,18.63
2022-08-01T02:53:22.383Z,18.68
2022-08-01T02:55:57.229Z,18.69
2022-08-01T02:58:29.196Z,18.70
2022-08-01T03:00:56.231Z,18.71
2022-08-01T03:03:25.085Z,18.70
2022-08-01T03:05:53.773Z,18.67
2022-08-01T03:08:23.405Z,18.67
2022-08-01T03:10:53.616Z,18.64
2022-08-01T03:13:22.691Z,18.63
2022-08-01T03:15:53.267Z,18.60
2022-08-01T03:18:25.076Z,18.57
2022-08-01T03:20:55.092Z,18.53
2022-08-01T03:23:24.308Z,18.50
2022-08-01T03:25:54.346Z,18.48
2022-08-01T03:28:23.109Z,18.48
2022-08-01T03:30:53.437Z,18.51
2022-08-01T03:33:21.294Z,18.53
2022-08-01T03:35:54.432Z,18.57
2022-08-01T03:38:24.122Z,18.60
2022-08-01T03:41:00.194Z,18.61
2022-08-01T03:43:39.122Z,18.63
2022-08-01T03:46:11.114Z,18.66
2022-08-01T03:48:45.502Z,18.70
2022-08-01T03:51:14.937Z,18.72
2022-08-01T03:53:44.972Z,18.72
2022-08-01T03:56:17.746Z,18.73
2022-08-01T03:58:49.941Z,18.73
2022-08-01T04:01:16.271Z,18.72
2022-08-01T04:03:45.103Z,18.71
2022-08-01T04:06:14.489Z,18.68
2022-08-01T04:08:42.727Z,18.69
2022-08-01T04:11:11.302Z,18.67
2022-08-01T04:13:39.031Z,18.66
2022-08-01T04:16:06.647Z,18.64
2022-08-01T04:18:34.117Z,18.60
2022-08-01T04:21:01.837Z,18.61
2022-08-01T04:23:32.312Z,18.64
2022-08-01T04:26:04.668Z,18.68
2022-08-01T04:28:35.881Z,18.72
2022-08-01T04:31:07.676Z,18.74
2022-08-01T04:33:37.144Z,18.78
2022-08-01T04:36:07.576Z,18.83
2022-08-01T04:38:37.120Z,18.89
2022-08-01T04:41:08.914Z,18.94
2022-08-01T04:43:38.205Z,18.96
2022-08-01T04:46:09.158Z,18.98
2022-08-01T04:48:39.133Z,18.98
2022-08-01T04:51:20.472Z,19.00
2022-08-01T04:53:48.401Z,18.99
2022-08-01T04:56:16.349Z,18.97
2022-08-01T04:58:44.759Z,18.96
2022-08-01T05:01:12.628Z,18.97
2022-08-01T05:03:40.643Z,18.97
2022-08-01T05:06:08.417Z,18.97
2022-08-01T05:08:36.559Z,18.97
2022-08-01T05:11:04.919Z,18.98
2022-08-01T05:13:32.764Z,19.00
2022-08-01T05:16:00.599Z,19.02
2022-08-01T05:18:28.830Z,19.08
2022-08-01T05:20:56.678Z,19.09
2022-08-01T05:23:42.013Z,19.11
2022-08-01T05:25:57.670Z,19.14
2022-08-01T05:28:26.956Z,19.19
2022-08-01T05:30:57.095Z,19.24
2022-08-01T05:33:25.625Z,19.30
2022-08-01T05:35:53.755Z,19.37
2022-08-01T05:38:21.642Z,19.39
2022-08-01T05:40:49.373Z,19.24
2022-08-01T05:43:17.029Z,18.99
2022-08-01T05:45:45.606Z,18.73
2022-08-01T05:48:13.391Z,18.52
2022-08-01T05:50:41.119Z,18.40
2022-08-01T05:53:08.836Z,18.30
2022-08-01T05:55:37.888Z,18.16
2022-08-01T05:58:06.103Z,18.06
2022-08-01T06:00:34.097Z,18.03
2022-08-01T06:03:02.049Z,18.04
2022-08-01T06:05:29.763Z,18.10
2022-08-01T06:07:58.594Z,18.11
2022-08-01T06:10:26.751Z,18.12
2022-08-01T06:12:54.430Z,18.19
2022-08-01T06:15:21.953Z,18.27
2022-08-01T06:17:49.742Z,18.34
2022-08-01T06:20:17.584Z,18.38
2022-08-01T06:22:45.115Z,18.41
2022-08-01T06:25:17.473Z,18.50
2022-08-01T06:27:43.894Z,18.61
2022-08-01T06:30:12.253Z,18.69
2022-08-01T06:32:39.851Z,18.74
2022-08-01T06:35:08.689Z,18.77
2022-08-01T06:37:36.378Z,18.81
2022-08-01T06:40:09.667Z,18.79
2022-08-01T06:42:39.269Z,18.81
2022-08-01T06:45:12.004Z,18.86
2022-08-01T06:47:41.035Z,18.92
2022-08-01T06:50:10.605Z,18.97
2022-08-01T06:52:39.156Z,19.01
2022-08-01T06:55:07.576Z,19.04
2022-08-01T06:57:35.551Z,19.07
2022-08-01T07:00:10.170Z,19.14
2022-08-01T07:02:37.779Z,19.20
2022-08-01T07:05:06.344Z,19.25
2022-08-01T07:07:33.992Z,19.28
2022-08-01T07:10:01.567Z,19.32
2022-08-01T07:12:29.144Z,19.32
2022-08-01T07:14:56.708Z,19.32
2022-08-01T07:17:24.329Z,19.29
2022-08-01T07:19:53.985Z,19.24
2022-08-01T07:22:23.757Z,19.17
2022-08-01T07:24:54.473Z,19.14
2022-08-01T07:27:24.108Z,19.16
2022-08-01T07:29:50.861Z,19.16
2022-08-01T07:32:18.580Z,19.22
2022-08-01T07:34:46.457Z,19.32
2022-08-01T07:37:14.371Z,19.32
2022-08-01T07:39:42.544Z,19.33
2022-08-01T07:42:10.887Z,19.34
2022-08-01T07:44:39.041Z,19.41
2022-08-01T07:47:07.135Z,19.47
2022-08-01T07:49:39.898Z,19.55
2022-08-01T07:52:05.110Z,19.70
2022-08-01T07:54:34.616Z,19.85
2022-08-01T07:57:04.573Z,19.84
2022-08-01T07:59:32.266Z,19.76
2022-08-01T08:02:00.319Z,19.72
2022-08-01T08:04:28.974Z,19.71
2022-08-01T08:06:56.747Z,19.72
2022-08-01T08:09:24.465Z,19.71
2022-08-01T08:11:52.346Z,19.68
2022-08-01T08:14:22.259Z,19.67
2022-08-01T08:16:52.567Z,19.70
2022-08-01T08:19:20.354Z,19.78
2022-08-01T08:21:50.096Z,19.84
2022-08-01T08:24:20.481Z,19.92
2022-08-01T08:26:56.126Z,19.94
2022-08-01T08:29:25.184Z,20.00
2022-08-01T08:31:55.271Z,20.07
2022-08-01T08:34:23.296Z,20.13
2022-08-01T08:36:51.815Z,20.17
2022-08-01T08:39:19.827Z,20.12
2022-08-01T08:41:49.124Z,19.90
2022-08-01T08:44:19.062Z,19.71
2022-08-01T08:46:51.990Z,19.53
2022-08-01T08:49:25.124Z,19.42
2022-08-01T08:51:54.467Z,19.39
2022-08-01T08:54:30.891Z,19.43
2022-08-01T08:56:55.710Z,19.47
2022-08-01T08:59:25.389Z,19.50
2022-08-01T09:01:53.535Z,19.54
2022-08-01T09:04:25.995Z,19.59
2022-08-01T09:06:55.586Z,19.62
2022-08-01T09:09:24.270Z,19.64
2022-08-01T09:11:57.592Z,19.68
2022-08-01T09:14:25.883Z,19.71
2022-08-01T09:17:04.235Z,19.74
2022-08-01T09:19:48.145Z,19.78
2022-08-01T09:22:21.704Z,19.84
2022-08-01T09:25:09.155Z,19.86
2022-08-01T09:27:44.412Z,19.90
2022-08-01T09:30:19.227Z,19.90
2022-08-01T09:33:06.238Z,19.81
2022-08-01T09:35:43.947Z,19.69
2022-08-01T09:38:21.675Z,19.57
2022-08-01T09:40:58.001Z,19.54
2022-08-01T09:43:28.391Z,19.50
2022-08-01T09:45:58.874Z,19.49
2022-08-01T09:48:29.839Z,19.49
2022-08-01T09:51:01.254Z,19.48
2022-08-01T09:53:43.338Z,19.48
2022-08-01T09:56:13.788Z,19.49
2022-08-01T09:59:01.421Z,19.54
2022-08-01T10:01:45.353Z,19.62
2022-08-01T10:04:20.581Z,19.71
2022-08-01T10:06:53.012Z,19.81
2022-08-01T10:09:35.888Z,19.85
2022-08-01T10:12:03.483Z,19.93
2022-08-01T10:14:32.033Z,20.03
2022-08-01T10:17:05.470Z,20.13
2022-08-01T10:19:33.087Z,20.25
2022-08-01T10:22:01.948Z,20.35
2022-08-01T10:24:31.362Z,20.45
2022-08-01T10:27:09.448Z,20.39
2022-08-01T10:30:05.904Z,20.34
2022-08-01T10:32:17.079Z,20.40
2022-08-01T10:34:46.597Z,20.51
2022-08-01T10:37:15.789Z,20.58
2022-08-01T10:39:46.802Z,20.64
2022-08-01T10:42:15.562Z,20.60
2022-08-01T10:44:45.778Z,20.60
2022-08-01T10:47:22.961Z,20.49
2022-08-01T10:49:54.406Z,20.40
2022-08-01T10:52:21.521Z,20.33
2022-08-01T10:54:53.780Z,20.23
2022-08-01T10:57:23.320Z,20.20
2022-08-01T11:00:00.986Z,20.40
2022-08-01T11:02:34.143Z,20.77
2022-08-01T11:05:07.884Z,21.11
2022-08-01T11:07:49.522Z,21.28
2022-08-01T11:10:43.926Z,21.16
2022-08-01T11:13:13.521Z,21.02
2022-08-01T11:15:49.999Z,20.76
2022-08-01T11:18:32.150Z,20.70
2022-08-01T11:21:56.391Z,20.63
2022-08-01T11:23:37.927Z,20.52
2022-08-01T11:26:10.545Z,20.48
2022-08-01T11:28:41.272Z,20.49
2022-08-01T11:31:17.705Z,20.45
2022-08-01T11:33:49.366Z,20.47
2022-08-01T11:36:36.817Z,20.49
2022-08-01T11:39:13.195Z,20.45
2022-08-01T11:41:39.462Z,20.47
2022-08-01T11:44:17.418Z,20.58
2022-08-01T11:47:10.739Z,20.83
2022-08-01T11:49:48.949Z,20.94
2022-08-01T11:52:30.640Z,21.06
2022-08-01T11:55:11.694Z,21.09
2022-08-01T11:57:39.837Z,20.98
2022-08-01T12:00:19.196Z,20.91
2022-08-01T12:02:47.947Z,20.94
2022-08-01T12:05:21.176Z,20.90
2022-08-01T12:07:51.399Z,21.00
2022-08-01T12:10:23.264Z,21.14
2022-08-01T12:12:55.039Z,21.24
2022-08-01T12:15:25.238Z,21.26
2022-08-01T12:17:59.925Z,21.30
2022-08-01T12:20:36.737Z,21.35
2022-08-01T12:23:12.300Z,21.36
2022-08-01T12:25:41.549Z,21.36
2022-08-01T12:28:11.127Z,21.35
2022-08-01T12:30:39.508Z,21.30
2022-08-01T12:33:11.294Z,21.23
2022-08-01T12:35:42.314Z,21.18
2022-08-01T12:38:20.328Z,21.15
2022-08-01T12:40:51.489Z,21.13
2022-08-01T12:43:28.455Z,21.12
2022-08-01T12:45:56.972Z,21.19
2022-08-01T12:48:22.162Z,21.25
2022-08-01T12:50:51.248Z,21.42
2022-08-01T12:53:19.291Z,21.73
2022-08-01T12:55:58.102Z,22.06
2022-08-01T12:58:34.135Z,22.22
2022-08-01T13:01:09.004Z,22.33
2022-08-01T13:03:37.295Z,22.43
2022-08-01T13:06:17.443Z,22.56
2022-08-01T13:08:46.718Z,22.77
2022-08-01T13:11:17.839Z,22.91
2022-08-01T13:13:49.073Z,22.95
2022-08-01T13:16:30.877Z,22.96
2022-08-01T13:18:51.097Z,22.83
2022-08-01T13:21:21.833Z,22.73
2022-08-01T13:24:13.443Z,22.48
2022-08-01T13:26:51.181Z,22.38
2022-08-01T13:29:23.561Z,22.24
2022-08-01T13:31:51.264Z,22.18
2022-08-01T13:34:19.231Z,22.17
2022-08-01T13:36:49.458Z,22.15
2022-08-01T13:39:35.133Z,22.14
2022-08-01T13:42:03.005Z,22.11
2022-08-01T13:44:31.913Z,22.10
2022-08-01T13:46:59.638Z,22.12
2022-08-01T13:49:37.186Z,22.09
2022-08-01T13:51:57.200Z,22.09
2022-08-01T13:54:25.289Z,22.03
2022-08-01T13:56:54.377Z,21.99
2022-08-01T13:59:22.414Z,21.97
2022-08-01T14:01:50.416Z,21.98
2022-08-01T14:04:18.006Z,21.97
2022-08-01T14:06:45.714Z,21.95
2022-08-01T14:09:18.101Z,21.93
2022-08-01T14:11:45.788Z,21.95
2022-08-01T14:14:14.099Z,21.96
2022-08-01T14:16:45.320Z,21.98
2022-08-01T14:19:12.992Z,22.02
2022-08-01T14:21:40.516Z,21.99
2022-08-01T14:24:10.123Z,22.01
2022-08-01T14:26:37.753Z,21.96
2022-08-01T14:29:05.448Z,21.96
2022-08-01T14:31:34.521Z,22.11
2022-08-01T14:34:02.812Z,22.37
2022-08-01T14:36:32.395Z,22.69
2022-08-01T14:39:01.089Z,22.99
2022-08-01T14:41:30.905Z,23.13
2022-08-01T14:44:00.144Z,23.11
2022-08-01T14:46:27.629Z,23.02
2022-08-01T14:48:55.484Z,22.94
2022-08-01T14:51:23.259Z,22.81
2022-08-01T14:53:53.185Z,22.77
2022-08-01T14:56:21.340Z,22.75
2022-08-01T14:58:49.130Z,22.64
2022-08-01T15:01:18.717Z,22.61
2022-08-01T15:03:48.338Z,22.59
2022-08-01T15:06:16.050Z,22.55
2022-08-01T15:08:43.866Z,22.55
2022-08-01T15:11:12.069Z,22.56
2022-08-01T15:13:42.650Z,22.55
2022-08-01T15:16:09.514Z,22.50
2022-08-01T15:18:39.477Z,22.50
2022-08-01T15:21:07.344Z,22.47
2022-08-01T15:23:35.159Z,22.49
2022-08-01T15:26:02.719Z,22.63
2022-08-01T15:28:30.218Z,22.80
2022-08-01T15:30:59.035Z,22.96
2022-08-01T15:33:26.583Z,23.14
2022-08-01T15:35:53.988Z,23.35
2022-08-01T15:38:22.682Z,23.57
2022-08-01T15:40:50.059Z,23.79
2022-08-01T15:43:17.652Z,23.81
2022-08-01T15:45:48.116Z,23.69
2022-08-01T15:48:18.400Z,23.51
2022-08-01T15:50:46.549Z,23.32
2022-08-01T15:53:14.658Z,23.24
2022-08-01T15:55:42.246Z,23.22
2022-08-01T15:58:12.199Z,23.31
2022-08-01T16:00:40.314Z,23.40
2022-08-01T16:03:09.974Z,23.44
2022-08-01T16:05:43.470Z,23.40
2022-08-01T16:08:08.188Z,23.29
2022-08-01T16:10:35.885Z,23.23
2022-08-01T16:13:07.114Z,23.17
2022-08-01T16:15:33.327Z,23.16
2022-08-01T16:18:03.177Z,23.07
2022-08-01T16:20:30.935Z,23.11
2022-08-01T16:22:58.468Z,23.20
2022-08-01T16:25:26.086Z,23.33
2022-08-01T16:27:54.022Z,23.40
2022-08-01T16:30:22.428Z,23.46
2022-08-01T16:32:55.845Z,23.48
2022-08-01T16:35:19.820Z,23.46
2022-08-01T16:37:48.326Z,23.36
2022-08-01T16:40:16.082Z,23.23
2022-08-01T16:42:43.718Z,23.12
2022-08-01T16:45:14.076Z,23.02
2022-08-01T16:47:42.208Z,22.95
2022-08-01T16:50:10.012Z,22.96
2022-08-01T16:52:42.058Z,22.97
2022-08-01T16:55:09.166Z,22.99
2022-08-01T16:57:37.812Z,23.03
2022-08-01T17:00:10.802Z,23.04
2022-08-01T17:02:40.233Z,22.98
2022-08-01T17:05:09.334Z,22.95
2022-08-01T17:07:39.332Z,22.94
2022-08-01T17:10:08.941Z,22.95
2022-08-01T17:12:36.523Z,22.91
2022-08-01T17:15:04.922Z,22.87
2022-08-01T17:17:32.746Z,22.82
2022-08-01T17:20:00.592Z,22.73
2022-08-01T17:22:28.256Z,22.69
2022-08-01T17:24:55.839Z,22.60
2022-08-01T17:27:23.526Z,22.53
2022-08-01T17:29:51.235Z,22.42
2022-08-01T17:32:19.122Z,22.37
2022-08-01T17:34:46.764Z,22.29
2022-08-01T17:37:14.408Z,22.17
2022-08-01T17:39:42.039Z,22.07
2022-08-01T17:42:10.486Z,21.95
2022-08-01T17:44:38.702Z,21.83
2022-08-01T17:47:06.839Z,21.76
2022-08-01T17:49:53.724Z,21.65
2022-08-01T17:52:04.691Z,21.55
2022-08-01T17:54:32.842Z,21.46
2022-08-01T17:57:00.851Z,21.39
2022-08-01T17:59:28.552Z,21.35
2022-08-01T18:01:56.390Z,21.30
2022-08-01T18:04:24.384Z,21.24
2022-08-01T18:06:58.315Z,21.20
2022-08-01T18:09:21.820Z,21.18
2022-08-01T18:11:49.361Z,21.13
2022-08-01T18:14:16.939Z,21.10
2022-08-01T18:16:44.487Z,21.06
2022-08-01T18:19:12.260Z,21.01
2022-08-01T18:21:42.783Z,20.99
2022-08-01T18:24:09.460Z,20.94
2022-08-01T18:26:37.019Z,20.90
2022-08-01T18:29:06.646Z,20.89
2022-08-01T18:31:34.951Z,20.87
2022-08-01T18:34:02.875Z,20.88
2022-08-01T18:36:32.754Z,20.88
2022-08-01T18:39:10.485Z,20.82
2022-08-01T18:41:37.461Z,20.81
2022-08-01T18:44:08.489Z,20.81
2022-08-01T18:46:38.815Z,20.77
2022-08-01T18:49:09.901Z,20.73
2022-08-01T18:51:43.898Z,20.70
2022-08-01T18:54:08.947Z,20.67
2022-08-01T18:56:36.630Z,20.64
2022-08-01T18:59:04.413Z,20.64
2022-08-01T19:01:32.137Z,20.63
2022-08-01T19:03:59.986Z,20.64
2022-08-01T19:06:28.767Z,20.62
2022-08-01T19:09:01.906Z,20.68
2022-08-01T19:11:25.769Z,20.73
2022-08-01T19:13:54.650Z,20.77
2022-08-01T19:16:23.054Z,20.80
2022-08-01T19:18:50.902Z,20.82
2022-08-01T19:21:19.952Z,20.82
2022-08-01T19:24:05.855Z,20.83
2022-08-01T19:26:35.494Z,20.81
2022-08-01T19:29:11.597Z,20.77
2022-08-01T19:31:44.395Z,20.74
2022-08-01T19:34:14.208Z,20.72
2022-08-01T19:36:48.831Z,20.73
2022-08-01T19:39:21.193Z,20.72
2022-08-01T19:41:51.128Z,20.71
2022-08-01T19:44:23.291Z,20.71
2022-08-01T19:46:52.999Z,20.71
2022-08-01T19:49:22.744Z,20.73
2022-08-01T19:52:00.164Z,20.74
2022-08-01T19:54:37.683Z,20.75
2022-08-01T19:57:08.590Z,20.77
2022-08-01T19:59:36.670Z,20.82
2022-08-01T20:02:06.159Z,20.84
2022-08-01T20:04:35.532Z,20.85
2022-08-01T20:07:03.917Z,20.85
2022-08-01T20:09:33.159Z,20.85
2022-08-01T20:12:03.773Z,20.81
2022-08-01T20:14:31.449Z,20.80
2022-08-01T20:16:59.310Z,20.75
2022-08-01T20:19:28.877Z,20.70
2022-08-01T20:22:04.345Z,20.67
2022-08-01T20:24:41.069Z,20.62
2022-08-01T20:27:09.318Z,20.58
2022-08-01T20:29:38.274Z,20.53
2022-08-01T20:32:07.089Z,20.56
2022-08-01T20:34:39.287Z,20.56
2022-08-01T20:37:13.025Z,20.58
2022-08-01T20:39:42.727Z,20.58
2022-08-01T20:42:11.195Z,20.58
2022-08-01T20:44:39.034Z,20.57
2022-08-01T20:47:06.689Z,20.58
2022-08-01T20:49:37.019Z,20.60
2022-08-01T20:52:12.070Z,20.62
2022-08-01T20:54:35.206Z,20.63
2022-08-01T20:57:11.174Z,20.63
2022-08-01T20:59:55.947Z,20.62
2022-08-01T21:02:47.381Z,20.61
2022-08-01T21:05:26.254Z,20.61
2022-08-01T21:08:05.192Z,20.60
2022-08-01T21:10:35.609Z,20.58
2022-08-01T21:13:07.727Z,20.55
2022-08-01T21:16:22.671Z,20.51
2022-08-01T21:18:38.920Z,20.47
2022-08-01T21:21:16.571Z,20.43
2022-08-01T21:24:06.424Z,20.40
2022-08-01T21:26:36.054Z,20.40
2022-08-01T21:29:06.652Z,20.39
2022-08-01T21:31:40.595Z,20.42
2022-08-01T21:34:07.441Z,20.44
2022-08-01T21:36:36.473Z,20.45
2022-08-01T21:39:06.918Z,20.48
2022-08-01T21:42:03.222Z,20.48
2022-08-01T21:44:07.287Z,20.47
2022-08-01T21:46:35.993Z,20.51
2022-08-01T21:49:04.897Z,20.55
2022-08-01T21:51:45.196Z,20.57
2022-08-01T21:54:50.108Z,20.58
2022-08-01T21:57:50.773Z,20.56
2022-08-01T22:00:26.187Z,20.54
2022-08-01T22:03:32.596Z,20.51
2022-08-01T22:06:01.873Z,20.50
2022-08-01T22:08:36.803Z,20.42
2022-08-01T22:11:08.087Z,20.40
2022-08-01T22:13:36.823Z,20.34
2022-08-01T22:16:06.168Z,20.31
2022-08-01T22:18:36.090Z,20.27
2022-08-01T22:21:04.613Z,20.24
2022-08-01T22:23:37.523Z,20.23
2022-08-01T22:26:10.254Z,20.21
2022-08-01T22:28:40.195Z,20.21
2022-08-01T22:31:08.090Z,20.24
2022-08-01T22:33:38.162Z,20.27
2022-08-01T22:36:07.043Z,20.31
2022-08-01T22:38:35.044Z,20.33
2022-08-01T22:41:16.544Z,20.35
2022-08-01T22:44:09.714Z,20.37
2022-08-01T22:46:48.610Z,20.40
2022-08-01T22:49:24.268Z,20.41
2022-08-01T22:52:21.176Z,20.42
2022-08-01T22:55:01.407Z,20.45
2022-08-01T22:57:50.795Z,20.42
2022-08-01T23:00:18.742Z,20.37
2022-08-01T23:02:53.820Z,20.35
2022-08-01T23:05:24.314Z,20.23
2022-08-01T23:07:54.681Z,20.11
2022-08-01T23:10:24.895Z,20.08
2022-08-01T23:12:54.908Z,20.04
2022-08-01T23:15:24.244Z,20.00
2022-08-01T23:17:53.478Z,19.97
2022-08-01T23:20:22.251Z,19.98
2022-08-01T23:22:52.022Z,19.97
2022-08-01T23:25:19.610Z,19.97
2022-08-01T23:28:04.737Z,19.99
2022-08-01T23:30:17.486Z,20.00
2022-08-01T23:32:45.381Z,20.03
2022-08-01T23:35:13.196Z,20.06
2022-08-01T23:37:40.777Z,20.08
2022-08-01T23:40:10.579Z,20.10
2022-08-01T23:42:38.359Z,20.12
2022-08-01T23:45:08.112Z,20.15
2022-08-01T23:47:35.861Z,20.15
2022-08-01T23:50:04.221Z,20.13
2022-08-01T23:52:32.482Z,20.13
2022-08-01T23:55:03.458Z,20.10
2022-08-01T23:57:31.256Z,20.10
